Kezdőlap
METAR-TAF:

METAR-TAF

Repülőterek :

Bückeburg, Németország

földrajzi szélesség: 52-17N, földrajzi hosszúság: 009-05E, magasság: 70 m

Jelenlegi meteorológiai megfigyelések

A jelentés 14 perccel ezelõtt készült, 12:20 UTC
Nyugat-délnyugati szél 22 kt széllökések: 34 kt
Hőmérséklet 9°C
Páratartalom 57%
Légköri nyomás 998 hPa
Látótávolság 10 km, vagy több
Kevés felhő 3200 lábon

METAR: ETHB 151220Z 25022G34KT 9999 FEW032 09/01 Q0998 BLU+

Idő: 13:34 (12:34 UTC)


TAF: hiányzik

Meteorológiai megfigyelések és előrejelzések több, mint 4000 repülőtéren (METAR és TAF jelentéseket).

A térképen piros és sárga pontok jelzik az elérhető meteorológiai állomásokat.

Mozgassa az egeret a pont fölött, hogy megjelenjen az állomás neve.

Azután kattintson az időjárási megfigyelések és előrejelzések megtekintéséhez.

A térkép megváltoztatása: kattintson a fekete keresztel jelölt zöld gombra ráközelítéshez, a vonallal jelölt zöld gombra távolításhoz, vagy a zöld nyilakra a szomszédos térképek eléréséhez.


METAR-TAF: